sensor_id;sensor_type;location;lat;lon;timestamp;P1;durP1;ratioP1;P2;durP2;ratioP2
37203;SDS011;23098;48.054;10.636;2023-05-10T00:00:07;1.35;;;0.77;;
37203;SDS011;23098;48.054;10.636;2023-05-10T00:02:34;0.80;;;0.80;;
37203;SDS011;23098;48.054;10.636;2023-05-10T00:04:59;0.70;;;0.70;;
37203;SDS011;23098;48.054;10.636;2023-05-10T00:07:25;0.93;;;0.70;;
37203;SDS011;23098;48.054;10.636;2023-05-10T00:09:50;0.93;;;0.77;;
37203;SDS011;23098;48.054;10.636;2023-05-10T00:12:16;0.52;;;0.52;;
37203;SDS011;23098;48.054;10.636;2023-05-10T00:14:42;0.60;;;0.60;;
37203;SDS011;23098;48.054;10.636;2023-05-10T00:17:07;1.00;;;0.60;;
37203;SDS011;23098;48.054;10.636;2023-05-10T00:19:33;1.05;;;0.70;;
37203;SDS011;23098;48.054;10.636;2023-05-10T00:21:58;0.75;;;0.60;;
37203;SDS011;23098;48.054;10.636;2023-05-10T00:24:24;0.70;;;0.68;;
37203;SDS011;23098;48.054;10.636;2023-05-10T00:26:50;0.80;;;0.80;;
37203;SDS011;23098;48.054;10.636;2023-05-10T00:29:15;0.80;;;0.80;;
37203;SDS011;23098;48.054;10.636;2023-05-10T00:31:41;1.30;;;0.82;;
37203;SDS011;23098;48.054;10.636;2023-05-10T00:34:06;0.77;;;0.77;;
37203;SDS011;23098;48.054;10.636;2023-05-10T00:36:32;0.90;;;0.90;;
37203;SDS011;23098;48.054;10.636;2023-05-10T00:38:57;2.65;;;0.70;;
37203;SDS011;23098;48.054;10.636;2023-05-10T00:41:23;1.52;;;0.70;;
37203;SDS011;23098;48.054;10.636;2023-05-10T00:43:48;0.70;;;0.70;;
37203;SDS011;23098;48.054;10.636;2023-05-10T00:46:14;0.82;;;0.52;;
37203;SDS011;23098;48.054;10.636;2023-05-10T00:48:40;1.33;;;0.90;;
37203;SDS011;23098;48.054;10.636;2023-05-10T00:51:06;1.33;;;0.95;;
37203;SDS011;23098;48.054;10.636;2023-05-10T00:53:32;0.85;;;0.85;;
37203;SDS011;23098;48.054;10.636;2023-05-10T00:55:59;0.82;;;0.75;;
37203;SDS011;23098;48.054;10.636;2023-05-10T00:58:26;0.70;;;0.70;;
37203;SDS011;23098;48.054;10.636;2023-05-10T01:00:53;0.88;;;0.80;;
37203;SDS011;23098;48.054;10.636;2023-05-10T01:03:22;1.20;;;0.60;;
37203;SDS011;23098;48.054;10.636;2023-05-10T01:05:48;0.77;;;0.77;;
37203;SDS011;23098;48.054;10.636;2023-05-10T01:08:15;0.80;;;0.80;;
37203;SDS011;23098;48.054;10.636;2023-05-10T01:10:40;1.02;;;0.90;;
37203;SDS011;23098;48.054;10.636;2023-05-10T01:13:07;0.77;;;0.77;;
37203;SDS011;23098;48.054;10.636;2023-05-10T01:15:34;1.35;;;0.70;;
37203;SDS011;23098;48.054;10.636;2023-05-10T01:18:00;1.00;;;0.80;;
37203;SDS011;23098;48.054;10.636;2023-05-10T01:20:27;0.95;;;0.90;;
37203;SDS011;23098;48.054;10.636;2023-05-10T01:25:58;1.10;;;1.00;;
37203;SDS011;23098;48.054;10.636;2023-05-10T01:34:20;1.10;;;1.00;;
37203;SDS011;23098;48.054;10.636;2023-05-10T01:37:01;1.00;;;0.90;;
37203;SDS011;23098;48.054;10.636;2023-05-10T01:39:35;1.70;;;0.82;;
37203;SDS011;23098;48.054;10.636;2023-05-10T01:42:08;4.20;;;1.10;;
37203;SDS011;23098;48.054;10.636;2023-05-10T01:44:50;1.00;;;0.90;;
37203;SDS011;23098;48.054;10.636;2023-05-10T01:50:04;0.88;;;0.85;;
37203;SDS011;23098;48.054;10.636;2023-05-10T01:52:38;1.25;;;0.90;;
37203;SDS011;23098;48.054;10.636;2023-05-10T01:55:11;1.63;;;0.70;;
37203;SDS011;23098;48.054;10.636;2023-05-10T01:57:41;0.93;;;0.82;;
37203;SDS011;23098;48.054;10.636;2023-05-10T02:00:09;0.95;;;0.45;;
37203;SDS011;23098;48.054;10.636;2023-05-10T02:02:39;0.75;;;0.70;;
37203;SDS011;23098;48.054;10.636;2023-05-10T02:05:09;0.85;;;0.80;;
37203;SDS011;23098;48.054;10.636;2023-05-10T02:07:38;3.78;;;0.75;;
37203;SDS011;23098;48.054;10.636;2023-05-10T02:10:05;0.68;;;0.50;;
37203;SDS011;23098;48.054;10.636;2023-05-10T02:12:36;0.70;;;0.52;;
37203;SDS011;23098;48.054;10.636;2023-05-10T02:15:06;0.60;;;0.60;;
37203;SDS011;23098;48.054;10.636;2023-05-10T02:17:33;0.68;;;0.68;;
37203;SDS011;23098;48.054;10.636;2023-05-10T02:20:01;0.73;;;0.60;;
37203;SDS011;23098;48.054;10.636;2023-05-10T02:22:28;0.50;;;0.50;;
37203;SDS011;23098;48.054;10.636;2023-05-10T02:24:55;0.50;;;0.45;;
37203;SDS011;23098;48.054;10.636;2023-05-10T02:27:23;0.43;;;0.43;;
37203;SDS011;23098;48.054;10.636;2023-05-10T02:29:50;0.40;;;0.40;;
37203;SDS011;23098;48.054;10.636;2023-05-10T02:32:16;0.65;;;0.40;;
37203;SDS011;23098;48.054;10.636;2023-05-10T02:34:43;0.50;;;0.50;;
37203;SDS011;23098;48.054;10.636;2023-05-10T02:37:10;1.65;;;0.47;;
37203;SDS011;23098;48.054;10.636;2023-05-10T02:39:39;0.50;;;0.50;;
37203;SDS011;23098;48.054;10.636;2023-05-10T02:42:08;0.50;;;0.50;;
37203;SDS011;23098;48.054;10.636;2023-05-10T02:44:40;0.60;;;0.60;;
37203;SDS011;23098;48.054;10.636;2023-05-10T02:47:07;0.75;;;0.43;;
37203;SDS011;23098;48.054;10.636;2023-05-10T02:49:33;0.50;;;0.47;;
37203;SDS011;23098;48.054;10.636;2023-05-10T02:52:00;2.40;;;0.70;;
37203;SDS011;23098;48.054;10.636;2023-05-10T02:54:30;0.63;;;0.50;;
37203;SDS011;23098;48.054;10.636;2023-05-10T02:57:00;0.50;;;0.50;;
37203;SDS011;23098;48.054;10.636;2023-05-10T02:59:28;0.50;;;0.50;;
37203;SDS011;23098;48.054;10.636;2023-05-10T03:01:53;0.77;;;0.50;;
37203;SDS011;23098;48.054;10.636;2023-05-10T03:04:19;0.73;;;0.60;;
37203;SDS011;23098;48.054;10.636;2023-05-10T03:06:45;1.17;;;0.47;;
37203;SDS011;23098;48.054;10.636;2023-05-10T03:09:11;0.32;;;0.32;;
37203;SDS011;23098;48.054;10.636;2023-05-10T03:14:34;0.28;;;0.28;;
37203;SDS011;23098;48.054;10.636;2023-05-10T03:17:06;1.17;;;0.50;;
37203;SDS011;23098;48.054;10.636;2023-05-10T03:19:55;0.40;;;0.40;;
37203;SDS011;23098;48.054;10.636;2023-05-10T03:22:39;0.50;;;0.40;;
37203;SDS011;23098;48.054;10.636;2023-05-10T03:25:10;0.30;;;0.30;;
37203;SDS011;23098;48.054;10.636;2023-05-10T03:27:36;0.20;;;0.20;;
37203;SDS011;23098;48.054;10.636;2023-05-10T03:30:05;0.40;;;0.40;;
37203;SDS011;23098;48.054;10.636;2023-05-10T03:32:33;0.40;;;0.40;;
37203;SDS011;23098;48.054;10.636;2023-05-10T03:34:59;0.40;;;0.40;;
37203;SDS011;23098;48.054;10.636;2023-05-10T03:37:25;0.50;;;0.45;;
37203;SDS011;23098;48.054;10.636;2023-05-10T03:39:50;0.60;;;0.40;;
37203;SDS011;23098;48.054;10.636;2023-05-10T03:42:16;0.50;;;0.40;;
37203;SDS011;23098;48.054;10.636;2023-05-10T03:44:42;0.38;;;0.38;;
37203;SDS011;23098;48.054;10.636;2023-05-10T03:47:08;1.45;;;0.55;;
37203;SDS011;23098;48.054;10.636;2023-05-10T03:49:33;2.15;;;0.47;;
37203;SDS011;23098;48.054;10.636;2023-05-10T03:51:59;1.77;;;0.40;;
37203;SDS011;23098;48.054;10.636;2023-05-10T03:54:25;0.43;;;0.43;;
37203;SDS011;23098;48.054;10.636;2023-05-10T03:56:51;0.50;;;0.47;;
37203;SDS011;23098;48.054;10.636;2023-05-10T03:59:16;0.50;;;0.50;;
37203;SDS011;23098;48.054;10.636;2023-05-10T04:01:42;1.88;;;0.60;;
37203;SDS011;23098;48.054;10.636;2023-05-10T04:04:07;1.00;;;0.50;;
37203;SDS011;23098;48.054;10.636;2023-05-10T04:06:33;0.50;;;0.50;;
37203;SDS011;23098;48.054;10.636;2023-05-10T04:08:58;0.47;;;0.47;;
37203;SDS011;23098;48.054;10.636;2023-05-10T04:11:26;0.60;;;0.60;;
37203;SDS011;23098;48.054;10.636;2023-05-10T04:13:52;0.93;;;0.80;;
37203;SDS011;23098;48.054;10.636;2023-05-10T04:16:18;0.80;;;0.60;;
37203;SDS011;23098;48.054;10.636;2023-05-10T04:18:45;0.63;;;0.63;;
37203;SDS011;23098;48.054;10.636;2023-05-10T04:21:11;1.80;;;0.80;;
37203;SDS011;23098;48.054;10.636;2023-05-10T04:23:37;1.23;;;0.70;;
37203;SDS011;23098;48.054;10.636;2023-05-10T04:26:03;0.70;;;0.70;;
37203;SDS011;23098;48.054;10.636;2023-05-10T04:28:29;0.52;;;0.52;;
37203;SDS011;23098;48.054;10.636;2023-05-10T04:31:00;0.57;;;0.50;;
37203;SDS011;23098;48.054;10.636;2023-05-10T04:33:27;1.35;;;0.60;;
37203;SDS011;23098;48.054;10.636;2023-05-10T04:35:52;0.70;;;0.68;;
37203;SDS011;23098;48.054;10.636;2023-05-10T04:38:18;0.73;;;0.60;;
37203;SDS011;23098;48.054;10.636;2023-05-10T04:40:44;0.50;;;0.50;;
37203;SDS011;23098;48.054;10.636;2023-05-10T04:43:09;1.08;;;0.60;;
37203;SDS011;23098;48.054;10.636;2023-05-10T04:45:35;2.13;;;0.77;;
37203;SDS011;23098;48.054;10.636;2023-05-10T04:48:00;2.20;;;0.60;;
37203;SDS011;23098;48.054;10.636;2023-05-10T04:50:26;1.65;;;0.63;;
37203;SDS011;23098;48.054;10.636;2023-05-10T04:52:51;0.60;;;0.60;;
37203;SDS011;23098;48.054;10.636;2023-05-10T04:55:17;4.28;;;0.60;;
37203;SDS011;23098;48.054;10.636;2023-05-10T04:57:42;0.50;;;0.50;;
37203;SDS011;23098;48.054;10.636;2023-05-10T05:00:08;2.13;;;0.80;;
37203;SDS011;23098;48.054;10.636;2023-05-10T05:02:34;1.65;;;0.90;;
37203;SDS011;23098;48.054;10.636;2023-05-10T05:04:59;0.70;;;0.60;;
37203;SDS011;23098;48.054;10.636;2023-05-10T05:07:25;3.35;;;0.63;;
37203;SDS011;23098;48.054;10.636;2023-05-10T05:09:50;1.67;;;0.63;;
37203;SDS011;23098;48.054;10.636;2023-05-10T05:12:16;0.70;;;0.70;;
37203;SDS011;23098;48.054;10.636;2023-05-10T05:14:41;1.00;;;0.50;;
37203;SDS011;23098;48.054;10.636;2023-05-10T05:17:07;1.15;;;0.60;;
37203;SDS011;23098;48.054;10.636;2023-05-10T05:19:33;1.42;;;0.70;;
37203;SDS011;23098;48.054;10.636;2023-05-10T05:21:58;1.75;;;0.63;;
37203;SDS011;23098;48.054;10.636;2023-05-10T05:24:24;0.55;;;0.55;;
37203;SDS011;23098;48.054;10.636;2023-05-10T05:26:50;1.02;;;0.70;;
37203;SDS011;23098;48.054;10.636;2023-05-10T05:29:15;0.70;;;0.70;;
37203;SDS011;23098;48.054;10.636;2023-05-10T05:31:41;2.50;;;0.80;;
37203;SDS011;23098;48.054;10.636;2023-05-10T05:34:06;2.10;;;0.80;;
37203;SDS011;23098;48.054;10.636;2023-05-10T05:36:32;1.10;;;0.80;;
37203;SDS011;23098;48.054;10.636;2023-05-10T05:39:00;0.90;;;0.70;;
37203;SDS011;23098;48.054;10.636;2023-05-10T05:41:26;1.50;;;0.80;;
37203;SDS011;23098;48.054;10.636;2023-05-10T05:43:51;1.63;;;0.80;;
37203;SDS011;23098;48.054;10.636;2023-05-10T05:46:17;0.95;;;0.93;;
37203;SDS011;23098;48.054;10.636;2023-05-10T05:48:43;1.10;;;0.80;;
37203;SDS011;23098;48.054;10.636;2023-05-10T05:51:08;2.05;;;1.00;;
37203;SDS011;23098;48.054;10.636;2023-05-10T05:53:34;1.00;;;0.80;;
37203;SDS011;23098;48.054;10.636;2023-05-10T05:55:59;0.88;;;0.73;;
37203;SDS011;23098;48.054;10.636;2023-05-10T05:58:25;1.13;;;1.00;;
37203;SDS011;23098;48.054;10.636;2023-05-10T06:00:51;1.63;;;1.00;;
37203;SDS011;23098;48.054;10.636;2023-05-10T06:03:17;0.93;;;0.90;;
37203;SDS011;23098;48.054;10.636;2023-05-10T06:05:43;2.17;;;0.90;;
37203;SDS011;23098;48.054;10.636;2023-05-10T06:08:09;2.47;;;0.90;;
37203;SDS011;23098;48.054;10.636;2023-05-10T06:10:35;1.20;;;1.00;;
37203;SDS011;23098;48.054;10.636;2023-05-10T06:13:00;1.10;;;0.90;;
37203;SDS011;23098;48.054;10.636;2023-05-10T06:15:26;2.30;;;0.93;;
37203;SDS011;23098;48.054;10.636;2023-05-10T06:17:52;1.15;;;0.80;;
37203;SDS011;23098;48.054;10.636;2023-05-10T06:20:17;1.02;;;0.93;;
37203;SDS011;23098;48.054;10.636;2023-05-10T06:22:43;1.65;;;0.98;;
37203;SDS011;23098;48.054;10.636;2023-05-10T06:25:09;3.53;;;1.00;;
37203;SDS011;23098;48.054;10.636;2023-05-10T06:27:34;2.25;;;1.30;;
37203;SDS011;23098;48.054;10.636;2023-05-10T06:30:00;1.63;;;1.13;;
37203;SDS011;23098;48.054;10.636;2023-05-10T06:32:26;1.80;;;1.30;;
37203;SDS011;23098;48.054;10.636;2023-05-10T06:34:51;1.38;;;1.13;;
37203;SDS011;23098;48.054;10.636;2023-05-10T06:37:17;1.30;;;1.20;;
37203;SDS011;23098;48.054;10.636;2023-05-10T06:39:42;2.38;;;1.00;;
37203;SDS011;23098;48.054;10.636;2023-05-10T06:42:08;2.03;;;1.13;;
37203;SDS011;23098;48.054;10.636;2023-05-10T06:44:33;1.52;;;1.10;;
37203;SDS011;23098;48.054;10.636;2023-05-10T06:46:59;1.25;;;1.15;;
37203;SDS011;23098;48.054;10.636;2023-05-10T06:49:25;6.13;;;1.67;;
37203;SDS011;23098;48.054;10.636;2023-05-10T06:51:50;1.60;;;1.50;;
37203;SDS011;23098;48.054;10.636;2023-05-10T06:54:16;1.25;;;1.15;;
37203;SDS011;23098;48.054;10.636;2023-05-10T06:56:42;2.95;;;1.50;;
37203;SDS011;23098;48.054;10.636;2023-05-10T06:59:08;6.38;;;1.17;;
37203;SDS011;23098;48.054;10.636;2023-05-10T07:01:34;1.92;;;1.20;;
37203;SDS011;23098;48.054;10.636;2023-05-10T07:03:59;2.47;;;1.00;;
37203;SDS011;23098;48.054;10.636;2023-05-10T07:06:25;1.10;;;1.00;;
37203;SDS011;23098;48.054;10.636;2023-05-10T07:08:50;1.25;;;1.02;;
37203;SDS011;23098;48.054;10.636;2023-05-10T07:11:16;2.88;;;1.10;;
37203;SDS011;23098;48.054;10.636;2023-05-10T07:13:41;1.02;;;0.93;;
37203;SDS011;23098;48.054;10.636;2023-05-10T07:16:09;0.85;;;0.82;;
37203;SDS011;23098;48.054;10.636;2023-05-10T07:18:35;1.20;;;0.73;;
37203;SDS011;23098;48.054;10.636;2023-05-10T07:21:01;1.02;;;0.80;;
37203;SDS011;23098;48.054;10.636;2023-05-10T07:23:27;1.25;;;1.05;;
37203;SDS011;23098;48.054;10.636;2023-05-10T07:25:52;1.15;;;1.00;;
37203;SDS011;23098;48.054;10.636;2023-05-10T07:28:18;1.13;;;0.90;;
37203;SDS011;23098;48.054;10.636;2023-05-10T07:30:44;3.30;;;1.20;;
37203;SDS011;23098;48.054;10.636;2023-05-10T07:33:11;3.92;;;1.30;;
37203;SDS011;23098;48.054;10.636;2023-05-10T07:35:38;1.35;;;1.20;;
37203;SDS011;23098;48.054;10.636;2023-05-10T07:38:04;2.75;;;1.38;;
37203;SDS011;23098;48.054;10.636;2023-05-10T07:40:29;1.40;;;1.10;;
37203;SDS011;23098;48.054;10.636;2023-05-10T07:42:55;1.40;;;1.30;;
37203;SDS011;23098;48.054;10.636;2023-05-10T07:45:21;1.25;;;1.15;;
37203;SDS011;23098;48.054;10.636;2023-05-10T07:47:47;2.72;;;1.25;;
37203;SDS011;23098;48.054;10.636;2023-05-10T07:50:12;2.35;;;1.20;;
37203;SDS011;23098;48.054;10.636;2023-05-10T07:52:38;1.45;;;1.25;;
37203;SDS011;23098;48.054;10.636;2023-05-10T07:55:03;3.75;;;1.23;;
37203;SDS011;23098;48.054;10.636;2023-05-10T07:57:30;1.30;;;1.10;;
37203;SDS011;23098;48.054;10.636;2023-05-10T07:59:55;1.05;;;0.95;;
37203;SDS011;23098;48.054;10.636;2023-05-10T08:02:21;1.17;;;1.08;;
37203;SDS011;23098;48.054;10.636;2023-05-10T08:04:46;1.58;;;1.10;;
37203;SDS011;23098;48.054;10.636;2023-05-10T08:07:12;0.98;;;0.98;;
37203;SDS011;23098;48.054;10.636;2023-05-10T08:09:37;2.00;;;1.13;;
37203;SDS011;23098;48.054;10.636;2023-05-10T08:12:03;1.98;;;1.10;;
37203;SDS011;23098;48.054;10.636;2023-05-10T08:14:29;1.40;;;1.20;;
37203;SDS011;23098;48.054;10.636;2023-05-10T08:16:54;1.33;;;1.10;;
37203;SDS011;23098;48.054;10.636;2023-05-10T08:19:21;1.77;;;1.08;;
37203;SDS011;23098;48.054;10.636;2023-05-10T08:21:47;1.73;;;1.00;;
37203;SDS011;23098;48.054;10.636;2023-05-10T08:24:13;1.48;;;0.90;;
37203;SDS011;23098;48.054;10.636;2023-05-10T08:26:39;0.95;;;0.82;;
37203;SDS011;23098;48.054;10.636;2023-05-10T08:29:04;2.40;;;1.10;;
37203;SDS011;23098;48.054;10.636;2023-05-10T08:31:31;1.52;;;0.80;;
37203;SDS011;23098;48.054;10.636;2023-05-10T08:33:57;0.95;;;0.85;;
37203;SDS011;23098;48.054;10.636;2023-05-10T08:36:23;2.28;;;0.90;;
37203;SDS011;23098;48.054;10.636;2023-05-10T08:38:52;2.25;;;0.85;;
37203;SDS011;23098;48.054;10.636;2023-05-10T08:41:22;3.03;;;1.00;;
37203;SDS011;23098;48.054;10.636;2023-05-10T08:43:50;1.02;;;0.85;;
37203;SDS011;23098;48.054;10.636;2023-05-10T08:46:17;1.17;;;0.90;;
37203;SDS011;23098;48.054;10.636;2023-05-10T08:48:45;1.10;;;0.98;;
37203;SDS011;23098;48.054;10.636;2023-05-10T08:51:15;2.17;;;1.00;;
37203;SDS011;23098;48.054;10.636;2023-05-10T08:53:44;0.95;;;0.85;;
37203;SDS011;23098;48.054;10.636;2023-05-10T08:56:10;1.55;;;0.82;;
37203;SDS011;23098;48.054;10.636;2023-05-10T08:58:37;1.45;;;1.02;;
37203;SDS011;23098;48.054;10.636;2023-05-10T09:01:03;4.07;;;1.10;;
37203;SDS011;23098;48.054;10.636;2023-05-10T09:03:30;1.38;;;1.02;;
37203;SDS011;23098;48.054;10.636;2023-05-10T09:05:56;3.78;;;1.70;;
37203;SDS011;23098;48.054;10.636;2023-05-10T09:08:22;8.93;;;3.30;;
37203;SDS011;23098;48.054;10.636;2023-05-10T09:10:52;3.70;;;1.73;;
37203;SDS011;23098;48.054;10.636;2023-05-10T09:13:18;5.45;;;1.38;;
37203;SDS011;23098;48.054;10.636;2023-05-10T09:15:45;2.03;;;1.30;;
37203;SDS011;23098;48.054;10.636;2023-05-10T09:18:12;1.73;;;1.08;;
37203;SDS011;23098;48.054;10.636;2023-05-10T09:20:38;5.28;;;1.20;;
37203;SDS011;23098;48.054;10.636;2023-05-10T09:23:03;1.88;;;0.98;;
37203;SDS011;23098;48.054;10.636;2023-05-10T09:25:29;1.52;;;1.08;;
37203;SDS011;23098;48.054;10.636;2023-05-10T09:27:58;1.88;;;1.10;;
37203;SDS011;23098;48.054;10.636;2023-05-10T09:30:27;2.13;;;1.30;;
37203;SDS011;23098;48.054;10.636;2023-05-10T09:32:54;1.15;;;0.82;;
37203;SDS011;23098;48.054;10.636;2023-05-10T09:35:21;3.28;;;1.02;;
37203;SDS011;23098;48.054;10.636;2023-05-10T09:37:52;2.45;;;1.00;;
37203;SDS011;23098;48.054;10.636;2023-05-10T09:40:22;3.55;;;0.90;;
37203;SDS011;23098;48.054;10.636;2023-05-10T09:42:56;1.50;;;0.75;;
37203;SDS011;23098;48.054;10.636;2023-05-10T09:45:26;1.45;;;0.80;;
37203;SDS011;23098;48.054;10.636;2023-05-10T09:47:52;2.65;;;0.90;;
37203;SDS011;23098;48.054;10.636;2023-05-10T09:50:18;0.73;;;0.70;;
37203;SDS011;23098;48.054;10.636;2023-05-10T09:53:01;1.45;;;0.60;;
37203;SDS011;23098;48.054;10.636;2023-05-10T09:55:38;1.38;;;0.93;;
37203;SDS011;23098;48.054;10.636;2023-05-10T09:58:05;1.67;;;0.80;;
37203;SDS011;23098;48.054;10.636;2023-05-10T10:00:44;0.70;;;0.70;;
37203;SDS011;23098;48.054;10.636;2023-05-10T10:03:19;1.90;;;0.68;;
37203;SDS011;23098;48.054;10.636;2023-05-10T10:05:46;1.00;;;0.80;;
37203;SDS011;23098;48.054;10.636;2023-05-10T10:08:13;1.25;;;0.90;;
37203;SDS011;23098;48.054;10.636;2023-05-10T10:10:40;1.27;;;0.80;;
37203;SDS011;23098;48.054;10.636;2023-05-10T10:13:06;1.27;;;0.70;;
37203;SDS011;23098;48.054;10.636;2023-05-10T10:15:33;1.25;;;0.90;;
37203;SDS011;23098;48.054;10.636;2023-05-10T10:17:59;1.35;;;1.10;;
37203;SDS011;23098;48.054;10.636;2023-05-10T10:20:25;0.52;;;0.52;;
37203;SDS011;23098;48.054;10.636;2023-05-10T10:22:52;1.02;;;0.85;;
37203;SDS011;23098;48.054;10.636;2023-05-10T10:25:17;4.10;;;1.38;;
37203;SDS011;23098;48.054;10.636;2023-05-10T10:30:19;0.93;;;0.80;;
37203;SDS011;23098;48.054;10.636;2023-05-10T10:35:59;1.98;;;0.80;;
37203;SDS011;23098;48.054;10.636;2023-05-10T10:38:35;1.13;;;0.93;;
37203;SDS011;23098;48.054;10.636;2023-05-10T10:41:03;1.08;;;0.90;;
37203;SDS011;23098;48.054;10.636;2023-05-10T10:43:35;0.90;;;0.90;;
37203;SDS011;23098;48.054;10.636;2023-05-10T10:46:14;2.85;;;1.00;;
37203;SDS011;23098;48.054;10.636;2023-05-10T10:48:43;2.10;;;0.90;;
37203;SDS011;23098;48.054;10.636;2023-05-10T10:51:13;3.20;;;0.90;;
37203;SDS011;23098;48.054;10.636;2023-05-10T10:53:39;1.85;;;0.93;;
37203;SDS011;23098;48.054;10.636;2023-05-10T10:56:09;1.38;;;0.93;;
37203;SDS011;23098;48.054;10.636;2023-05-10T10:58:38;2.70;;;0.60;;
37203;SDS011;23098;48.054;10.636;2023-05-10T11:01:11;2.80;;;1.17;;
37203;SDS011;23098;48.054;10.636;2023-05-10T11:03:41;2.42;;;1.25;;
37203;SDS011;23098;48.054;10.636;2023-05-10T11:06:29;2.50;;;1.20;;
37203;SDS011;23098;48.054;10.636;2023-05-10T11:08:56;1.98;;;1.30;;
37203;SDS011;23098;48.054;10.636;2023-05-10T11:11:22;1.63;;;1.27;;
37203;SDS011;23098;48.054;10.636;2023-05-10T11:13:48;1.40;;;1.02;;
37203;SDS011;23098;48.054;10.636;2023-05-10T11:16:23;1.75;;;1.20;;
37203;SDS011;23098;48.054;10.636;2023-05-10T11:18:53;1.42;;;1.30;;
37203;SDS011;23098;48.054;10.636;2023-05-10T11:21:30;2.17;;;1.20;;
37203;SDS011;23098;48.054;10.636;2023-05-10T11:23:57;2.55;;;1.45;;
37203;SDS011;23098;48.054;10.636;2023-05-10T11:26:25;1.10;;;1.00;;
37203;SDS011;23098;48.054;10.636;2023-05-10T11:28:54;1.83;;;0.70;;
37203;SDS011;23098;48.054;10.636;2023-05-10T11:31:20;1.77;;;0.60;;
37203;SDS011;23098;48.054;10.636;2023-05-10T11:33:48;3.88;;;0.50;;
37203;SDS011;23098;48.054;10.636;2023-05-10T11:36:15;0.65;;;0.52;;
37203;SDS011;23098;48.054;10.636;2023-05-10T11:38:45;0.73;;;0.60;;
37203;SDS011;23098;48.054;10.636;2023-05-10T11:41:12;2.88;;;0.90;;
37203;SDS011;23098;48.054;10.636;2023-05-10T11:43:41;1.70;;;0.77;;
37203;SDS011;23098;48.054;10.636;2023-05-10T11:46:07;0.50;;;0.50;;
37203;SDS011;23098;48.054;10.636;2023-05-10T11:48:36;0.70;;;0.60;;
37203;SDS011;23098;48.054;10.636;2023-05-10T11:51:05;1.05;;;0.80;;
37203;SDS011;23098;48.054;10.636;2023-05-10T11:53:32;1.35;;;0.90;;
37203;SDS011;23098;48.054;10.636;2023-05-10T11:56:07;2.17;;;0.90;;
37203;SDS011;23098;48.054;10.636;2023-05-10T11:58:34;4.47;;;1.15;;
37203;SDS011;23098;48.054;10.636;2023-05-10T12:01:01;1.23;;;0.63;;
37203;SDS011;23098;48.054;10.636;2023-05-10T12:03:28;0.80;;;0.80;;
37203;SDS011;23098;48.054;10.636;2023-05-10T12:05:57;2.17;;;0.70;;
37203;SDS011;23098;48.054;10.636;2023-05-10T12:08:27;0.60;;;0.60;;
37203;SDS011;23098;48.054;10.636;2023-05-10T12:11:05;0.65;;;0.50;;
37203;SDS011;23098;48.054;10.636;2023-05-10T12:13:32;1.77;;;0.60;;
37203;SDS011;23098;48.054;10.636;2023-05-10T12:16:11;0.47;;;0.40;;
37203;SDS011;23098;48.054;10.636;2023-05-10T12:18:41;1.58;;;1.10;;
37203;SDS011;23098;48.054;10.636;2023-05-10T12:21:10;3.00;;;1.30;;
37203;SDS011;23098;48.054;10.636;2023-05-10T12:23:36;1.05;;;1.00;;
37203;SDS011;23098;48.054;10.636;2023-05-10T12:26:03;1.38;;;1.17;;
37203;SDS011;23098;48.054;10.636;2023-05-10T12:28:30;2.35;;;0.90;;
37203;SDS011;23098;48.054;10.636;2023-05-10T12:30:57;0.57;;;0.57;;
37203;SDS011;23098;48.054;10.636;2023-05-10T12:33:24;0.50;;;0.50;;
37203;SDS011;23098;48.054;10.636;2023-05-10T12:35:50;1.13;;;0.65;;
37203;SDS011;23098;48.054;10.636;2023-05-10T12:38:27;1.70;;;0.65;;
37203;SDS011;23098;48.054;10.636;2023-05-10T12:40:56;1.08;;;0.70;;
37203;SDS011;23098;48.054;10.636;2023-05-10T12:43:23;1.08;;;0.85;;
37203;SDS011;23098;48.054;10.636;2023-05-10T12:45:48;1.75;;;0.70;;
37203;SDS011;23098;48.054;10.636;2023-05-10T12:48:17;1.45;;;0.82;;
37203;SDS011;23098;48.054;10.636;2023-05-10T12:50:42;1.25;;;0.70;;
37203;SDS011;23098;48.054;10.636;2023-05-10T12:53:08;0.55;;;0.50;;
37203;SDS011;23098;48.054;10.636;2023-05-10T12:55:33;1.15;;;0.70;;
37203;SDS011;23098;48.054;10.636;2023-05-10T12:57:59;0.93;;;0.70;;
37203;SDS011;23098;48.054;10.636;2023-05-10T13:00:25;1.30;;;0.90;;
37203;SDS011;23098;48.054;10.636;2023-05-10T13:02:51;2.22;;;0.90;;
37203;SDS011;23098;48.054;10.636;2023-05-10T13:05:17;9.50;;;0.88;;
37203;SDS011;23098;48.054;10.636;2023-05-10T13:07:42;1.90;;;0.70;;
37203;SDS011;23098;48.054;10.636;2023-05-10T13:10:08;1.45;;;0.70;;
37203;SDS011;23098;48.054;10.636;2023-05-10T13:12:35;1.58;;;0.80;;
37203;SDS011;23098;48.054;10.636;2023-05-10T13:15:00;3.33;;;0.82;;
37203;SDS011;23098;48.054;10.636;2023-05-10T13:17:27;1.67;;;0.88;;
37203;SDS011;23098;48.054;10.636;2023-05-10T13:19:52;0.95;;;0.75;;
37203;SDS011;23098;48.054;10.636;2023-05-10T13:22:18;1.10;;;0.75;;
37203;SDS011;23098;48.054;10.636;2023-05-10T13:24:43;2.00;;;1.00;;
37203;SDS011;23098;48.054;10.636;2023-05-10T13:27:09;1.00;;;0.70;;
37203;SDS011;23098;48.054;10.636;2023-05-10T13:29:35;0.90;;;0.65;;
37203;SDS011;23098;48.054;10.636;2023-05-10T13:32:00;1.35;;;0.90;;
37203;SDS011;23098;48.054;10.636;2023-05-10T13:34:26;2.08;;;0.88;;
37203;SDS011;23098;48.054;10.636;2023-05-10T13:36:52;1.88;;;1.05;;
37203;SDS011;23098;48.054;10.636;2023-05-10T13:39:19;3.72;;;0.93;;
37203;SDS011;23098;48.054;10.636;2023-05-10T13:41:45;3.75;;;0.90;;
37203;SDS011;23098;48.054;10.636;2023-05-10T13:44:11;1.40;;;1.00;;
37203;SDS011;23098;48.054;10.636;2023-05-10T13:46:38;1.58;;;0.98;;
37203;SDS011;23098;48.054;10.636;2023-05-10T13:49:04;1.05;;;0.80;;
37203;SDS011;23098;48.054;10.636;2023-05-10T13:51:29;2.03;;;1.10;;
37203;SDS011;23098;48.054;10.636;2023-05-10T13:53:56;1.40;;;0.57;;
37203;SDS011;23098;48.054;10.636;2023-05-10T13:56:22;1.15;;;0.90;;
37203;SDS011;23098;48.054;10.636;2023-05-10T13:58:48;1.35;;;0.98;;
37203;SDS011;23098;48.054;10.636;2023-05-10T14:01:13;0.82;;;0.80;;
37203;SDS011;23098;48.054;10.636;2023-05-10T14:03:39;3.10;;;1.13;;
37203;SDS011;23098;48.054;10.636;2023-05-10T14:06:04;1.35;;;0.90;;
37203;SDS011;23098;48.054;10.636;2023-05-10T14:08:32;1.75;;;0.85;;
37203;SDS011;23098;48.054;10.636;2023-05-10T14:10:57;2.38;;;0.75;;
37203;SDS011;23098;48.054;10.636;2023-05-10T14:13:23;1.40;;;0.80;;
37203;SDS011;23098;48.054;10.636;2023-05-10T14:15:49;2.45;;;0.70;;
37203;SDS011;23098;48.054;10.636;2023-05-10T14:18:15;1.15;;;0.70;;
37203;SDS011;23098;48.054;10.636;2023-05-10T14:20:41;0.98;;;0.85;;
37203;SDS011;23098;48.054;10.636;2023-05-10T14:23:06;1.08;;;0.88;;
37203;SDS011;23098;48.054;10.636;2023-05-10T14:25:32;1.48;;;0.98;;
37203;SDS011;23098;48.054;10.636;2023-05-10T14:27:58;2.35;;;0.80;;
37203;SDS011;23098;48.054;10.636;2023-05-10T14:30:23;1.55;;;0.90;;
37203;SDS011;23098;48.054;10.636;2023-05-10T14:32:49;1.23;;;0.80;;
37203;SDS011;23098;48.054;10.636;2023-05-10T14:35:15;2.05;;;0.80;;
37203;SDS011;23098;48.054;10.636;2023-05-10T14:37:40;3.17;;;0.70;;
37203;SDS011;23098;48.054;10.636;2023-05-10T14:40:06;2.05;;;0.88;;
37203;SDS011;23098;48.054;10.636;2023-05-10T14:42:32;1.10;;;0.70;;
37203;SDS011;23098;48.054;10.636;2023-05-10T14:44:57;1.15;;;1.00;;
37203;SDS011;23098;48.054;10.636;2023-05-10T14:47:23;2.15;;;0.90;;
37203;SDS011;23098;48.054;10.636;2023-05-10T14:49:48;0.80;;;0.80;;
37203;SDS011;23098;48.054;10.636;2023-05-10T14:52:14;0.77;;;0.63;;